Time;durP1;ratioP1;P1;durP2;ratioP2;P2;SDS_P1;SDS_P2;PMS_P1;PMS_P2;Temp;Humidity;BMP_temperature;BMP_pressure;BME280_temperature;BME280_humidity;BME280_pressure;Samples;Min_cycle;Max_cycle;Signal;HPM_P1;HPM_P2
2022/09/09 00:01:12;;;;;;;1.57;1.40;;;17.90;73.20;18.20;96241.00;;;;5108437;28;20215;-79
2022/09/09 00:03:54;;;;;;;1.50;1.30;;;17.90;73.50;18.20;96240.00;;;;5108085;28;20194;-80
2022/09/09 00:06:30;;;;;;;1.07;1.07;;;17.90;73.50;18.20;96242.00;;;;5111289;28;20198;-79
2022/09/09 00:09:11;;;;;;;1.97;1.43;;;17.90;73.50;18.20;96237.00;;;;5109772;28;20632;-79
2022/09/09 00:11:46;;;;;;;1.60;1.20;;;17.90;73.50;18.20;96242.00;;;;5111271;28;20214;-80
2022/09/09 00:14:24;;;;;;;2.00;1.20;;;17.90;73.50;18.20;96237.00;;;;5109175;27;20190;-79
2022/09/09 00:17:01;;;;;;;1.33;1.10;;;17.90;73.40;18.20;96228.00;;;;5111844;28;20560;-80
2022/09/09 00:19:38;;;;;;;1.83;1.10;;;17.80;73.40;18.10;96231.00;;;;5106441;28;20732;-80
2022/09/09 00:22:17;;;;;;;1.40;1.30;;;17.80;73.30;18.10;96240.00;;;;5116358;28;20220;-80
2022/09/09 00:24:53;;;;;;;1.20;1.07;;;17.80;73.50;18.10;96244.00;;;;5105917;28;20199;-79
2022/09/09 00:27:31;;;;;;;1.53;1.33;;;17.80;73.40;18.10;96241.00;;;;5097220;28;20224;-80
2022/09/09 00:30:16;;;;;;;1.30;1.20;;;17.80;73.50;18.00;96236.00;;;;5097160;28;20237;-80
2022/09/09 00:32:45;;;;;;;1.67;1.00;;;17.80;73.70;18.10;96231.00;;;;5116924;28;20286;-80
2022/09/09 00:35:22;;;;;;;1.40;1.30;;;17.70;73.80;18.10;96232.00;;;;5110206;28;20573;-79
2022/09/09 00:37:53;;;;;;;1.20;1.10;;;17.70;74.00;18.10;96231.00;;;;5106161;28;20187;-79
2022/09/09 00:40:30;;;;;;;1.83;1.13;;;17.70;73.90;18.10;96231.00;;;;5110558;28;20202;-79
2022/09/09 00:43:26;;;;;;;1.30;1.20;;;17.70;73.90;18.00;96235.00;;;;5113487;28;20201;-79
2022/09/09 00:46:30;;;;;;;1.77;1.07;;;17.70;74.10;18.00;96242.00;;;;5112280;28;20218;-80
2022/09/09 00:49:09;;;;;;;1.00;0.97;;;17.70;74.00;18.00;96233.00;;;;5114788;28;20187;-79
2022/09/09 00:51:53;;;;;;;1.20;1.10;;;17.70;73.90;18.00;96243.00;;;;5113077;28;20600;-79
2022/09/09 00:54:46;;;;;;;0.90;0.90;;;17.70;73.90;18.00;96242.00;;;;5117364;28;20183;-79
2022/09/09 00:57:28;;;;;;;1.30;0.90;;;17.70;74.00;18.00;96239.00;;;;5113858;28;20202;-79
2022/09/09 01:00:18;;;;;;;1.20;1.10;;;17.70;73.90;18.00;96241.00;;;;5111275;28;20194;-79
2022/09/09 01:03:11;;;;;;;2.10;1.10;;;17.70;73.90;18.00;96237.00;;;;5109976;28;20195;-79
2022/09/09 01:05:46;;;;;;;1.67;1.07;;;17.70;74.30;18.00;96237.00;;;;5111155;28;20222;-80
2022/09/09 01:08:39;;;;;;;1.20;1.10;;;17.60;74.40;18.00;96238.00;;;;5112529;28;20186;-80
2022/09/09 01:11:20;;;;;;;1.50;1.00;;;17.60;74.80;18.00;96239.00;;;;5116660;28;20210;-79
2022/09/09 01:13:59;;;;;;;1.23;1.13;;;17.70;74.80;18.00;96227.00;;;;5115015;28;20662;-79
2022/09/09 01:16:30;;;;;;;1.40;1.20;;;17.70;74.60;18.00;96231.00;;;;5094498;28;20275;-79
2022/09/09 01:19:00;;;;;;;1.40;0.93;;;17.70;74.50;18.00;96228.00;;;;5105440;28;20682;-79
2022/09/09 01:21:44;;;;;;;1.37;1.10;;;17.70;74.50;18.00;96219.00;;;;5102558;28;20246;-79
2022/09/09 01:24:28;;;;;;;1.83;1.13;;;17.70;74.40;18.00;96228.00;;;;5114410;28;20187;-78
2022/09/09 01:27:01;;;;;;;1.00;1.00;;;17.70;74.20;18.00;96234.00;;;;5101536;28;20486;-79
2022/09/09 01:29:29;;;;;;;2.87;1.10;;;17.70;74.10;18.00;96239.00;;;;5118073;28;20205;-79
2022/09/09 01:31:59;;;;;;;1.17;1.07;;;17.60;73.90;18.00;96237.00;;;;5116785;28;20313;-79
2022/09/09 01:34:32;;;;;;;1.40;1.10;;;17.60;74.50;17.90;96223.00;;;;5113928;28;20744;-79
2022/09/09 01:37:04;;;;;;;1.13;1.03;;;17.60;73.80;17.90;96235.00;;;;5110729;28;20637;-79
2022/09/09 01:39:32;;;;;;;1.10;1.00;;;17.60;74.40;17.90;96228.00;;;;5106493;28;20199;-80
2022/09/09 01:42:02;;;;;;;1.20;1.10;;;17.60;73.60;17.90;96222.00;;;;5101996;28;20305;-79
2022/09/09 01:44:31;;;;;;;0.90;0.90;;;17.60;73.60;17.90;96232.00;;;;5109425;28;20195;-79
2022/09/09 01:46:58;;;;;;;0.93;0.93;;;17.60;73.60;17.80;96231.00;;;;5116367;28;20218;-78
2022/09/09 01:49:25;;;;;;;1.00;0.90;;;17.50;73.60;17.80;96238.00;;;;5117349;28;20632;-78
2022/09/09 01:51:55;;;;;;;1.10;1.00;;;17.50;74.40;17.80;96238.00;;;;5113412;28;20242;-79
2022/09/09 01:54:28;;;;;;;1.30;1.20;;;17.50;73.90;17.80;96243.00;;;;5122477;28;20218;-79
2022/09/09 01:57:12;;;;;;;4.80;1.40;;;17.50;73.90;17.80;96241.00;;;;5120509;28;20174;-80
2022/09/09 02:00:03;;;;;;;0.90;0.90;;;17.50;74.00;17.80;96241.00;;;;5124130;28;20669;-79
2022/09/09 02:02:39;;;;;;;3.80;1.23;;;17.50;74.40;17.80;96245.00;;;;5124158;28;20209;-79
2022/09/09 02:05:25;;;;;;;3.20;1.13;;;17.50;74.90;17.80;96249.00;;;;5121759;28;20288;-79
2022/09/09 02:08:01;;;;;;;1.27;0.93;;;17.50;74.20;17.80;96247.00;;;;5123717;28;20683;-79
2022/09/09 02:10:36;;;;;;;1.63;1.00;;;17.50;74.10;17.80;96247.00;;;;5114545;28;20223;-79
2022/09/09 02:13:13;;;;;;;1.03;0.90;;;17.40;74.00;17.80;96241.00;;;;5111185;28;20198;-79
2022/09/09 02:15:48;;;;;;;0.77;0.77;;;17.40;74.00;17.70;96245.00;;;;5117608;28;20242;-79
2022/09/09 02:18:24;;;;;;;1.53;0.90;;;17.40;74.10;17.70;96242.00;;;;5107327;28;20651;-79
2022/09/09 02:20:54;;;;;;;1.00;0.90;;;17.40;74.40;17.80;96249.00;;;;5108708;28;20207;-79
2022/09/09 02:23:22;;;;;;;1.77;0.87;;;17.40;74.60;17.80;96245.00;;;;5107009;28;20198;-79
2022/09/09 02:25:53;;;;;;;3.03;1.00;;;17.40;74.80;17.80;96234.00;;;;5107498;28;20219;-79
2022/09/09 02:28:26;;;;;;;0.97;0.97;;;17.40;75.70;17.80;96233.00;;;;5115261;28;20266;-80
2022/09/09 02:30:54;;;;;;;2.00;1.10;;;17.50;75.20;17.90;96239.00;;;;5116628;28;20724;-79
2022/09/09 02:33:26;;;;;;;1.53;0.90;;;17.50;75.10;17.90;96232.00;;;;5099349;28;20192;-79
2022/09/09 02:36:01;;;;;;;2.43;0.83;;;17.50;75.00;17.80;96227.00;;;;5110513;28;20285;-79
2022/09/09 02:38:35;;;;;;;0.93;0.80;;;17.50;75.00;17.80;96223.00;;;;5110065;28;20605;-80
2022/09/09 02:41:02;;;;;;;1.73;1.17;;;17.50;74.90;17.80;96227.00;;;;5113599;28;20808;-80
2022/09/09 02:43:34;;;;;;;1.77;1.10;;;17.50;74.80;17.90;96229.00;;;;5103554;28;20199;-79
2022/09/09 02:46:29;;;;;;;1.27;0.97;;;17.50;74.90;17.90;96227.00;;;;5113259;28;20223;-80
2022/09/09 02:49:03;;;;;;;1.17;0.80;;;17.50;75.20;17.90;96212.00;;;;5118780;28;20191;-80
2022/09/09 02:51:40;;;;;;;1.27;1.17;;;17.50;75.10;17.90;96210.00;;;;5114989;28;20690;-80
2022/09/09 02:54:21;;;;;;;1.37;1.13;;;17.60;75.10;17.90;96212.00;;;;5110366;28;20179;-80
2022/09/09 02:56:54;;;;;;;1.43;0.90;;;17.60;74.90;17.90;96215.00;;;;5117133;28;20208;-80
2022/09/09 02:59:23;;;;;;;0.80;0.80;;;17.60;74.70;17.90;96223.00;;;;5109836;28;20257;-80
2022/09/09 03:01:50;;;;;;;1.00;1.00;;;17.50;74.50;17.90;96213.00;;;;5110684;28;20260;-80
2022/09/09 03:04:17;;;;;;;1.57;1.07;;;17.50;74.30;17.80;96215.00;;;;5112934;28;20250;-80
2022/09/09 03:06:45;;;;;;;1.27;0.97;;;17.50;74.10;17.80;96209.00;;;;5118350;28;20264;-80
2022/09/09 03:09:12;;;;;;;1.57;0.87;;;17.50;74.10;17.80;96212.00;;;;5100002;28;20191;-80
2022/09/09 03:11:39;;;;;;;0.87;0.80;;;17.50;74.00;17.80;96212.00;;;;5102367;28;20221;-81
2022/09/09 03:14:06;;;;;;;0.90;0.90;;;17.50;73.90;17.70;96214.00;;;;5113356;28;20199;-80
2022/09/09 03:16:35;;;;;;;0.97;0.83;;;17.50;73.90;17.70;96212.00;;;;5100026;28;20225;-80
2022/09/09 03:19:02;;;;;;;1.57;0.87;;;17.40;73.70;17.70;96212.00;;;;5107949;28;20195;-81
2022/09/09 03:21:29;;;;;;;1.10;1.03;;;17.40;73.80;17.70;96200.00;;;;5113021;28;20210;-80
2022/09/09 03:23:57;;;;;;;1.10;1.00;;;17.40;73.80;17.70;96206.00;;;;5112476;28;20274;-80
2022/09/09 03:26:24;;;;;;;1.27;1.17;;;17.40;73.80;17.60;96207.00;;;;5123044;28;20218;-80
2022/09/09 03:28:52;;;;;;;1.77;1.23;;;17.40;73.80;17.60;96206.00;;;;5123567;28;20219;-79
2022/09/09 03:31:19;;;;;;;2.83;1.20;;;17.30;73.80;17.60;96202.00;;;;5122801;28;20222;-80
2022/09/09 03:33:47;;;;;;;0.93;0.90;;;17.30;74.00;17.60;96197.00;;;;5116791;28;20190;-80
2022/09/09 03:36:15;;;;;;;1.37;1.27;;;17.30;74.10;17.60;96201.00;;;;5120558;27;20290;-80
2022/09/09 03:38:43;;;;;;;1.00;0.93;;;17.30;74.30;17.60;96197.00;;;;5114043;28;20227;-80
2022/09/09 03:41:10;;;;;;;0.80;0.80;;;17.30;74.50;17.60;96201.00;;;;5121067;28;20253;-80
2022/09/09 03:43:37;;;;;;;0.90;0.90;;;17.30;74.70;17.60;96196.00;;;;5110964;28;20194;-79
2022/09/09 03:46:05;;;;;;;1.43;1.20;;;17.30;74.90;17.60;96204.00;;;;5115896;28;20218;-80
2022/09/09 03:48:32;;;;;;;1.20;0.97;;;17.30;75.00;17.70;96196.00;;;;5110401;28;20195;-80
2022/09/09 03:51:01;;;;;;;1.47;1.37;;;17.30;75.10;17.70;96197.00;;;;5115417;28;20239;-80
2022/09/09 03:53:28;;;;;;;1.20;1.10;;;17.30;75.40;17.70;96199.00;;;;5102844;28;20223;-80
2022/09/09 03:55:59;;;;;;;1.67;1.00;;;17.30;75.40;17.70;96211.00;;;;5100270;28;20213;-80
2022/09/09 03:58:28;;;;;;;1.27;1.17;;;17.30;75.50;17.70;96202.00;;;;5098488;28;20176;-80
2022/09/09 04:00:57;;;;;;;1.10;0.97;;;17.40;75.60;17.80;96195.00;;;;5111987;28;20220;-80
2022/09/09 04:03:25;;;;;;;1.77;1.10;;;17.40;75.70;17.80;96196.00;;;;5114602;28;20223;-80
2022/09/09 04:05:52;;;;;;;0.90;0.90;;;17.40;75.80;17.80;96197.00;;;;5117074;28;20201;-80
2022/09/09 04:08:22;;;;;;;1.63;0.90;;;17.40;75.90;17.90;96198.00;;;;5117485;28;20202;-81
2022/09/09 04:10:50;;;;;;;1.23;1.13;;;17.50;76.20;17.90;96189.00;;;;5105976;28;20294;-81
2022/09/09 04:13:19;;;;;;;1.00;1.00;;;17.50;76.20;17.90;96188.00;;;;5108523;28;20281;-80
2022/09/09 04:15:52;;;;;;;1.73;1.03;;;17.50;76.20;18.00;96191.00;;;;5103608;28;20218;-80
2022/09/09 04:18:20;;;;;;;1.00;1.00;;;17.60;76.40;18.00;96188.00;;;;5110719;28;20594;-80
2022/09/09 04:20:48;;;;;;;1.30;1.10;;;17.60;76.20;18.00;96192.00;;;;5116115;28;20287;-80
2022/09/09 04:23:15;;;;;;;1.00;0.90;;;17.60;76.20;18.00;96189.00;;;;5108064;28;20583;-80
2022/09/09 04:25:47;;;;;;;0.80;0.80;;;17.60;76.10;18.00;96196.00;;;;5094678;28;20260;-80
2022/09/09 04:28:14;;;;;;;1.27;1.20;;;17.70;76.30;18.00;96190.00;;;;5099639;28;20251;-80
2022/09/09 04:30:41;;;;;;;1.10;1.00;;;17.60;76.80;18.00;96198.00;;;;5093550;28;20225;-80
2022/09/09 04:33:09;;;;;;;0.70;0.70;;;17.70;76.00;18.10;96204.00;;;;5114896;28;20559;-80
2022/09/09 04:35:37;;;;;;;2.00;1.00;;;17.70;75.90;18.10;96200.00;;;;5118025;28;20201;-80
2022/09/09 04:38:07;;;;;;;1.00;1.00;;;17.70;76.00;18.10;96204.00;;;;5100093;28;20191;-80
2022/09/09 04:40:34;;;;;;;1.10;1.00;;;17.70;75.90;18.10;96202.00;;;;5096336;28;20211;-81
2022/09/09 04:43:04;;;;;;;2.57;0.93;;;17.70;75.90;18.10;96198.00;;;;5107398;28;20230;-81
2022/09/09 04:45:32;;;;;;;1.00;0.90;;;17.70;76.10;18.20;96192.00;;;;5108740;28;20190;-82
2022/09/09 04:47:59;;;;;;;0.90;0.90;;;17.80;76.10;18.20;96182.00;;;;5116246;28;20218;-81
2022/09/09 04:50:26;;;;;;;1.13;0.80;;;17.80;76.40;18.30;96179.00;;;;5129278;28;20241;-82
2022/09/09 04:52:53;;;;;;;1.77;0.90;;;17.80;76.50;18.30;96185.00;;;;5125609;22;20229;-86
2022/09/09 04:55:20;;;;;;;1.30;1.00;;;17.80;76.50;18.40;96184.00;;;;5114016;28;20655;-86
2022/09/09 04:57:48;;;;;;;1.00;1.00;;;17.90;76.70;18.40;96185.00;;;;5114196;28;20282;-86
2022/09/09 05:00:19;;;;;;;0.93;0.93;;;17.90;76.60;18.40;96176.00;;;;5115624;28;20313;-86
2022/09/09 05:02:47;;;;;;;0.80;0.80;;;17.90;76.50;18.40;96182.00;;;;5115457;28;20302;-87
2022/09/09 05:05:14;;;;;;;1.13;0.83;;;17.90;76.20;18.50;96188.00;;;;5095444;28;20195;-86
2022/09/09 05:07:42;;;;;;;1.00;0.90;;;18.00;76.00;18.50;96186.00;;;;5091428;28;20222;-85
2022/09/09 05:10:10;;;;;;;0.90;0.90;;;18.00;75.80;18.50;96189.00;;;;5101062;28;20241;-85
2022/09/09 05:12:37;;;;;;;1.10;1.00;;;18.00;75.70;18.50;96187.00;;;;5096968;28;20199;-85
2022/09/09 05:15:06;;;;;;;0.97;0.90;;;18.00;75.60;18.40;96191.00;;;;5077789;28;20279;-85
2022/09/09 05:17:35;;;;;;;1.53;0.90;;;18.00;75.50;18.40;96194.00;;;;5102320;28;20235;-85
2022/09/09 05:20:03;;;;;;;0.80;0.80;;;18.00;75.40;18.40;96196.00;;;;5087178;28;20835;-85
2022/09/09 05:22:31;;;;;;;1.13;0.90;;;18.00;75.30;18.40;96199.00;;;;5110056;28;20217;-86
2022/09/09 05:24:58;;;;;;;1.20;0.90;;;18.00;75.30;18.40;96201.00;;;;5113785;28;20577;-86
2022/09/09 05:27:25;;;;;;;1.80;1.00;;;18.00;75.30;18.40;96195.00;;;;5114469;28;20275;-86
2022/09/09 05:29:52;;;;;;;1.13;1.07;;;18.00;75.30;18.40;96195.00;;;;5114370;28;20291;-85
2022/09/09 05:32:19;;;;;;;1.93;1.13;;;18.00;75.30;18.40;96198.00;;;;5096915;28;20646;-85
2022/09/09 05:34:48;;;;;;;2.83;1.00;;;18.00;75.40;18.40;96193.00;;;;5096445;28;20236;-87
2022/09/09 05:37:16;;;;;;;1.23;1.20;;;18.00;75.40;18.40;96201.00;;;;5093706;28;20223;-86
2022/09/09 05:39:43;;;;;;;2.17;1.10;;;18.00;75.30;18.40;96199.00;;;;5104205;28;20222;-86
2022/09/09 05:42:10;;;;;;;1.43;1.00;;;18.00;75.40;18.40;96200.00;;;;5107778;28;20191;-87
2022/09/09 05:44:38;;;;;;;1.47;1.00;;;18.00;75.50;18.40;96210.00;;;;5085135;28;20215;-86
2022/09/09 05:47:05;;;;;;;0.90;0.90;;;18.00;75.60;18.40;96203.00;;;;5103849;28;20220;-86
2022/09/09 05:49:32;;;;;;;0.70;0.70;;;18.00;75.50;18.40;96218.00;;;;5094699;28;20313;-86
2022/09/09 05:52:03;;;;;;;1.60;0.80;;;18.00;75.60;18.40;96214.00;;;;5095501;28;20291;-86
2022/09/09 05:54:32;;;;;;;1.00;0.70;;;18.00;75.60;18.40;96215.00;;;;5102338;28;20210;-86
2022/09/09 05:56:59;;;;;;;2.17;0.83;;;18.00;75.70;18.40;96209.00;;;;5108204;28;20198;-86
2022/09/09 05:59:27;;;;;;;4.10;1.20;;;18.00;75.80;18.40;96206.00;;;;5091517;28;20195;-86
2022/09/09 06:01:54;;;;;;;1.40;1.30;;;18.00;76.10;18.50;96209.00;;;;5096392;28;20303;-86
2022/09/09 06:04:22;;;;;;;0.90;0.90;;;18.00;76.30;18.50;96208.00;;;;5101860;28;20222;-87
2022/09/09 06:06:49;;;;;;;1.83;1.10;;;18.00;76.40;18.50;96219.00;;;;5102541;28;20229;-85
2022/09/09 06:09:17;;;;;;;0.80;0.80;;;18.10;76.50;18.60;96214.00;;;;5094822;28;20187;-87
2022/09/09 06:11:45;;;;;;;1.20;1.00;;;18.10;76.60;18.60;96208.00;;;;5098412;28;20225;-85
2022/09/09 06:14:12;;;;;;;1.50;1.20;;;18.10;76.60;18.60;96218.00;;;;5081166;28;20200;-85
2022/09/09 06:16:43;;;;;;;2.30;0.90;;;18.10;76.70;18.70;96210.00;;;;5103305;28;20199;-85
2022/09/09 06:19:12;;;;;;;1.17;1.00;;;18.20;76.80;18.70;96204.00;;;;5105954;27;20191;-86
2022/09/09 06:21:40;;;;;;;0.90;0.87;;;18.20;76.80;18.80;96203.00;;;;5102477;28;20203;-85
2022/09/09 06:24:08;;;;;;;0.80;0.80;;;18.20;77.00;18.80;96214.00;;;;5070676;28;20195;-85
2022/09/09 06:26:40;;;;;;;0.90;0.90;;;18.30;77.30;18.90;96215.00;;;;5064866;28;20207;-86
2022/09/09 06:29:09;;;;;;;0.80;0.80;;;18.30;77.40;18.90;96208.00;;;;5092847;28;20187;-86
2022/09/09 06:31:38;;;;;;;1.33;0.80;;;18.40;77.50;19.00;96214.00;;;;5088056;28;20200;-86
2022/09/09 06:34:07;;;;;;;1.10;1.00;;;18.40;77.50;19.10;96220.00;;;;5090132;28;20195;-86
2022/09/09 06:36:37;;;;;;;1.27;0.87;;;18.50;77.60;19.10;96216.00;;;;5094508;28;21008;-86
2022/09/09 06:39:06;;;;;;;1.80;1.20;;;18.50;77.60;19.20;96207.00;;;;5106186;28;20193;-85
2022/09/09 06:41:34;;;;;;;1.20;1.10;;;18.60;77.70;19.30;96201.00;;;;5080127;28;20242;-88
2022/09/09 06:44:03;;;;;;;1.20;1.07;;;18.60;77.70;19.30;96211.00;;;;5109772;28;20222;-86
2022/09/09 06:46:32;;;;;;;1.00;0.73;;;18.70;77.80;19.40;96212.00;;;;5092362;28;20203;-84
2022/09/09 06:49:00;;;;;;;0.80;0.80;;;18.80;77.80;19.40;96211.00;;;;5112324;28;20279;-85
2022/09/09 06:51:30;;;;;;;0.90;0.90;;;18.80;77.90;19.50;96215.00;;;;5096249;28;20254;-85
2022/09/09 06:53:59;;;;;;;0.97;0.97;;;18.90;77.90;19.50;96219.00;;;;5075882;28;20277;-85
2022/09/09 06:56:29;;;;;;;2.00;1.20;;;18.90;77.90;19.60;96227.00;;;;5089624;28;20196;-86
2022/09/09 06:59:00;;;;;;;0.83;0.80;;;18.90;77.90;19.70;96229.00;;;;5098346;28;20198;-85
2022/09/09 07:01:32;;;;;;;0.80;0.80;;;19.00;78.10;19.70;96234.00;;;;5082691;28;20220;-84
2022/09/09 07:04:00;;;;;;;1.13;1.00;;;19.00;78.10;19.80;96232.00;;;;5105647;28;20536;-85
2022/09/09 07:06:30;;;;;;;1.47;0.90;;;19.10;78.20;19.80;96244.00;;;;5073022;28;20283;-86
2022/09/09 07:08:59;;;;;;;1.40;0.90;;;19.20;78.30;19.90;96251.00;;;;5113188;28;20245;-85
2022/09/09 07:11:29;;;;;;;1.37;1.27;;;19.20;78.30;19.90;96264.00;;;;5100281;28;20235;-85
2022/09/09 07:13:59;;;;;;;1.07;1.03;;;19.30;78.20;19.90;96287.00;;;;5113017;28;20206;-85
2022/09/09 07:16:31;;;;;;;1.00;0.90;;;19.30;78.00;20.00;96305.00;;;;5094791;28;20226;-85
2022/09/09 07:18:58;;;;;;;2.53;0.90;;;19.30;77.90;20.00;96305.00;;;;5096572;28;20274;-85
2022/09/09 07:21:27;;;;;;;1.40;0.87;;;19.40;77.90;20.00;96293.00;;;;5100338;28;20246;-85
2022/09/09 07:23:55;;;;;;;0.77;0.77;;;19.40;77.90;20.00;96308.00;;;;5112186;28;20277;-85
2022/09/09 07:26:26;;;;;;;1.67;0.87;;;19.50;78.00;20.10;96294.00;;;;5093869;28;20196;-85
2022/09/09 07:28:53;;;;;;;1.50;0.77;;;19.50;77.90;20.10;96291.00;;;;5097206;28;20305;-85
2022/09/09 07:31:23;;;;;;;1.07;0.87;;;19.50;77.90;20.10;96298.00;;;;5107969;28;20253;-86
2022/09/09 07:33:52;;;;;;;1.27;0.60;;;19.50;78.10;20.10;96301.00;;;;5090892;28;20195;-85
2022/09/09 07:36:24;;;;;;;0.60;0.60;;;19.60;78.20;20.20;96308.00;;;;5095914;28;20290;-85
2022/09/09 07:38:54;;;;;;;0.63;0.50;;;19.60;78.10;20.20;96317.00;;;;5088289;28;20201;-85
2022/09/09 07:41:24;;;;;;;1.90;0.70;;;19.60;78.00;20.20;96315.00;;;;5102039;28;20298;-85
2022/09/09 07:43:53;;;;;;;0.80;0.80;;;19.70;78.10;20.20;96323.00;;;;5089020;28;20190;-86
2022/09/09 07:46:24;;;;;;;1.73;0.90;;;19.70;78.00;20.30;96317.00;;;;5076138;28;20570;-85
2022/09/09 07:48:56;;;;;;;2.60;0.67;;;19.70;78.20;20.30;96326.00;;;;5102742;28;20214;-85
2022/09/09 07:51:27;;;;;;;0.60;0.60;;;19.70;78.10;20.30;96331.00;;;;5097110;28;20227;-85
2022/09/09 07:53:57;;;;;;;1.00;0.70;;;19.80;78.10;20.30;96342.00;;;;5099014;28;20194;-85
2022/09/09 07:56:27;;;;;;;0.60;0.60;;;19.80;78.10;20.40;96338.00;;;;5102640;28;20632;-84
2022/09/09 07:58:56;;;;;;;0.70;0.70;;;19.80;78.00;20.40;96335.00;;;;5113061;28;20671;-85
2022/09/09 08:01:26;;;;;;;0.73;0.57;;;19.90;78.00;20.40;96326.00;;;;5108655;28;20260;-85
2022/09/09 08:03:59;;;;;;;1.20;0.70;;;19.90;77.90;20.50;96325.00;;;;5099781;28;20238;-84
2022/09/09 08:06:27;;;;;;;1.20;0.57;;;19.90;77.90;20.50;96320.00;;;;5097157;28;20667;-85
2022/09/09 08:08:55;;;;;;;0.50;0.50;;;19.90;77.80;20.50;96320.00;;;;5077757;28;20250;-86
2022/09/09 08:11:25;;;;;;;0.67;0.60;;;19.90;77.70;20.50;96314.00;;;;5095013;28;20215;-86
2022/09/09 08:13:54;;;;;;;1.13;0.60;;;20.00;77.80;20.50;96306.00;;;;5100740;28;20186;-86
2022/09/09 08:16:25;;;;;;;0.57;0.50;;;20.00;77.90;20.60;96312.00;;;;5083953;28;20235;-87
2022/09/09 08:18:55;;;;;;;4.27;0.80;;;20.00;78.30;20.60;96318.00;;;;5106488;28;20187;-86
2022/09/09 08:21:27;;;;;;;0.80;0.70;;;20.00;78.30;20.70;96318.00;;;;5096434;28;20272;-86
2022/09/09 08:23:57;;;;;;;1.13;0.80;;;20.10;78.20;20.70;96319.00;;;;5108274;28;20195;-86
2022/09/09 08:26:27;;;;;;;0.83;0.70;;;20.10;78.20;20.80;96320.00;;;;5101917;28;20200;-86
2022/09/09 08:28:57;;;;;;;0.70;0.63;;;20.10;78.30;20.80;96323.00;;;;5092535;28;20225;-87
2022/09/09 08:31:27;;;;;;;1.20;0.67;;;20.20;78.50;20.80;96323.00;;;;5101363;28;20249;-86
2022/09/09 08:33:59;;;;;;;1.10;0.73;;;20.20;78.30;20.90;96330.00;;;;5097730;28;20218;-86
2022/09/09 08:36:36;;;;;;;0.70;0.60;;;20.20;78.30;20.90;96327.00;;;;5096243;28;20675;-86
2022/09/09 08:39:08;;;;;;;1.07;0.60;;;20.30;78.40;20.90;96332.00;;;;5115522;28;20639;-85
2022/09/09 08:42:15;;;;;;;0.90;0.50;;;20.30;78.30;21.00;96343.00;;;;5098780;27;20689;-85
2022/09/09 08:45:12;;;;;;;0.57;0.53;;;20.40;78.70;21.00;96352.00;;;;5098991;28;20237;-85
2022/09/09 08:47:55;;;;;;;0.50;0.50;;;20.40;78.70;21.10;96358.00;;;;5111032;28;20206;-81
2022/09/09 08:50:29;;;;;;;1.20;0.50;;;20.50;78.50;21.10;96348.00;;;;5117687;28;20240;-82
2022/09/09 08:53:03;;;;;;;1.60;0.50;;;20.50;78.10;21.20;96342.00;;;;5117786;28;20227;-82
2022/09/09 08:55:42;;;;;;;0.50;0.50;;;20.50;77.90;21.20;96340.00;;;;5114669;28;20193;-84
2022/09/09 08:58:15;;;;;;;2.43;0.80;;;20.60;78.20;21.20;96347.00;;;;5104214;28;20621;-85
2022/09/09 09:01:03;;;;;;;1.40;0.83;;;20.60;78.10;21.20;96339.00;;;;5106520;28;20307;-85
2022/09/09 09:03:43;;;;;;;0.57;0.57;;;20.60;78.30;21.20;96333.00;;;;5117927;28;20216;-84
2022/09/09 09:06:35;;;;;;;0.50;0.50;;;20.60;78.10;21.30;96336.00;;;;5099872;28;20183;-85
2022/09/09 09:09:13;;;;;;;2.00;1.00;;;20.60;78.30;21.30;96349.00;;;;5109407;28;20214;-85
2022/09/09 09:11:49;;;;;;;0.63;0.60;;;20.70;78.00;21.40;96344.00;;;;5088333;28;20203;-85
2022/09/09 09:14:23;;;;;;;2.10;0.83;;;20.70;77.80;21.40;96357.00;;;;5100430;28;20191;-85
2022/09/09 09:16:56;;;;;;;0.70;0.70;;;20.70;77.80;21.50;96350.00;;;;5099762;28;20191;-85
2022/09/09 09:19:26;;;;;;;2.17;1.17;;;20.80;78.00;21.50;96352.00;;;;5098892;28;20191;-84
2022/09/09 09:22:04;;;;;;;1.00;1.00;;;20.80;77.90;21.60;96355.00;;;;5093733;28;20231;-85
2022/09/09 09:24:46;;;;;;;0.77;0.77;;;20.90;78.10;21.70;96344.00;;;;5082750;28;20241;-85
2022/09/09 09:27:16;;;;;;;1.17;0.90;;;21.00;77.90;21.80;96344.00;;;;5087145;28;20196;-86
2022/09/09 09:29:46;;;;;;;1.83;0.70;;;21.00;77.50;21.80;96334.00;;;;5084815;28;20742;-85
2022/09/09 09:32:20;;;;;;;1.60;0.77;;;21.10;77.60;21.80;96326.00;;;;5076930;28;20203;-85
2022/09/09 09:34:52;;;;;;;1.73;0.63;;;21.10;77.60;21.90;96321.00;;;;5115181;28;20663;-85
2022/09/09 09:37:29;;;;;;;0.67;0.60;;;21.20;77.60;21.90;96332.00;;;;5100615;28;20561;-84
2022/09/09 09:39:56;;;;;;;1.07;0.90;;;21.20;77.60;22.00;96338.00;;;;5096629;28;20240;-85
2022/09/09 09:42:24;;;;;;;0.77;0.77;;;21.30;77.50;22.00;96339.00;;;;5116978;28;20222;-85
2022/09/09 09:44:52;;;;;;;1.43;0.90;;;21.30;77.00;22.00;96334.00;;;;5110068;28;20598;-85
2022/09/09 09:47:23;;;;;;;2.17;0.97;;;21.30;76.90;22.00;96336.00;;;;5114619;28;20202;-84
2022/09/09 09:49:58;;;;;;;1.63;1.30;;;21.40;76.90;22.10;96334.00;;;;5095032;28;20560;-87
2022/09/09 09:52:30;;;;;;;0.90;0.90;;;21.40;76.40;22.10;96336.00;;;;5093124;28;20210;-86
2022/09/09 09:55:00;;;;;;;2.23;2.03;;;21.40;76.40;22.10;96337.00;;;;5099859;28;20285;-85
2022/09/09 09:57:33;;;;;;;1.80;1.70;;;21.50;76.30;22.10;96346.00;;;;5116143;28;20653;-85
2022/09/09 10:00:16;;;;;;;1.20;1.10;;;21.50;75.90;22.10;96345.00;;;;5117732;28;20237;-84
2022/09/09 10:02:47;;;;;;;1.10;0.97;;;21.50;75.30;22.10;96353.00;;;;5117221;28;20201;-84
2022/09/09 10:05:17;;;;;;;1.30;1.03;;;21.50;75.30;22.10;96359.00;;;;5115418;28;20205;-84
2022/09/09 10:07:46;;;;;;;0.90;0.87;;;21.60;75.20;22.10;96363.00;;;;5094297;28;20279;-85
2022/09/09 10:10:22;;;;;;;1.10;0.80;;;21.60;75.20;22.10;96355.00;;;;5099694;28;20210;-86
2022/09/09 10:13:06;;;;;;;1.97;1.27;;;21.60;75.00;22.10;96361.00;;;;5087558;28;20195;-84
2022/09/09 10:15:52;;;;;;;1.00;0.90;;;21.60;74.80;22.10;96350.00;;;;5073445;28;20207;-86
2022/09/09 10:18:40;;;;;;;1.87;1.13;;;21.60;74.60;22.20;96364.00;;;;5074282;28;20227;-82
2022/09/09 10:21:51;;;;;;;1.70;0.90;;;21.60;74.90;22.20;96361.00;;;;5075354;28;20304;-85
2022/09/09 10:24:52;;;;;;;1.30;1.20;;;21.70;75.20;22.30;96360.00;;;;5097157;28;20555;-82
2022/09/09 10:27:33;;;;;;;1.63;0.90;;;21.70;74.90;22.30;96354.00;;;;5105695;28;20658;-82
2022/09/09 10:30:16;;;;;;;1.00;0.80;;;21.70;75.20;22.40;96355.00;;;;5113863;28;20279;-82
2022/09/09 10:32:51;;;;;;;1.30;0.90;;;21.80;74.40;22.40;96355.00;;;;5099956;28;20216;-82
2022/09/09 10:35:34;;;;;;;1.10;1.00;;;21.80;74.10;22.40;96356.00;;;;5113351;28;20208;-82
2022/09/09 10:38:23;;;;;;;1.10;0.90;;;21.80;73.60;22.40;96358.00;;;;5124827;22;20190;-86
2022/09/09 10:41:13;;;;;;;1.20;1.10;;;21.90;74.00;22.50;96360.00;;;;5094993;28;20606;-82
2022/09/09 10:44:18;;;;;;;1.33;0.70;;;21.90;73.30;22.50;96369.00;;;;5086157;28;20678;-84
2022/09/09 10:47:23;;;;;;;4.83;1.50;;;22.00;73.20;22.60;96358.00;;;;5061876;28;20254;-84
2022/09/09 10:52:32;;;;;;;1.37;1.03;;;22.10;73.10;22.60;96358.00;;;;5109790;28;20206;-86
2022/09/09 10:55:10;;;;;;;1.10;1.00;;;22.10;73.30;22.70;96362.00;;;;5111739;28;20189;-86
2022/09/09 10:57:44;;;;;;;1.07;0.93;;;22.10;73.30;22.70;96359.00;;;;5112742;28;20641;-87
2022/09/09 11:00:20;;;;;;;1.20;1.10;;;22.20;73.10;22.80;96358.00;;;;5112520;28;20226;-90
2022/09/09 11:02:53;;;;;;;1.10;1.00;;;22.20;72.50;22.80;96353.00;;;;5112571;28;20194;-85
2022/09/09 11:05:25;;;;;;;0.87;0.87;;;22.20;72.40;22.80;96355.00;;;;5112670;28;20248;-86
2022/09/09 11:07:59;;;;;;;1.83;1.10;;;22.30;72.50;22.90;96363.00;;;;5103017;28;20207;-85
2022/09/09 11:10:33;;;;;;;1.00;1.00;;;22.30;72.50;22.90;96359.00;;;;5090621;28;20215;-85
2022/09/09 11:13:10;;;;;;;3.03;1.13;;;22.40;72.50;23.00;96357.00;;;;5111285;28;20631;-84
2022/09/09 11:15:45;;;;;;;1.83;1.73;;;22.40;72.30;23.00;96364.00;;;;5101528;28;20595;-84
2022/09/09 11:18:24;;;;;;;3.57;2.00;;;22.50;72.40;23.10;96354.00;;;;5088227;28;20246;-85
2022/09/09 11:21:00;;;;;;;1.17;1.10;;;22.50;72.20;23.10;96352.00;;;;5102079;28;20238;-84
2022/09/09 11:23:46;;;;;;;1.40;1.30;;;22.50;72.40;23.10;96352.00;;;;5112715;28;20187;-84